createdAt,value
2022-11-24T00:00:23.484Z,29.50
2022-11-24T00:03:11.319Z,27.90
2022-11-24T00:05:38.859Z,29.40
2022-11-24T00:08:06.741Z,29.20
2022-11-24T00:10:34.344Z,29.90
2022-11-24T00:13:01.748Z,28.50
2022-11-24T00:15:29.334Z,29.30
2022-11-24T00:17:56.991Z,28.40
2022-11-24T00:20:24.600Z,29.60
2022-11-24T00:22:52.266Z,30.30
2022-11-24T00:25:19.929Z,27.80
2022-11-24T00:27:47.631Z,29.70
2022-11-24T00:30:15.586Z,27.40
2022-11-24T00:32:43.139Z,26.80
2022-11-24T00:35:10.863Z,26.60
2022-11-24T00:37:38.432Z,25.50
2022-11-24T00:40:07.951Z,26.70
2022-11-24T00:42:35.556Z,26.10
2022-11-24T00:45:13.200Z,24.80
2022-11-24T00:47:41.729Z,23.40
2022-11-24T00:50:09.867Z,22.00
2022-11-24T00:52:37.423Z,23.10
2022-11-24T00:55:05.371Z,20.90
2022-11-24T00:57:35.186Z,21.40
2022-11-24T01:00:02.915Z,20.40
2022-11-24T01:02:30.513Z,20.10
2022-11-24T01:04:58.305Z,21.70
2022-11-24T01:07:25.928Z,20.30
2022-11-24T01:09:53.454Z,22.60
2022-11-24T01:12:20.915Z,22.60
2022-11-24T01:14:48.555Z,22.40
2022-11-24T01:17:16.226Z,22.10
2022-11-24T01:19:46.934Z,21.90
2022-11-24T01:22:15.392Z,21.40
2022-11-24T01:24:43.038Z,22.50
2022-11-24T01:27:10.686Z,21.50
2022-11-24T01:29:38.437Z,22.00
2022-11-24T01:32:06.335Z,23.80
2022-11-24T01:34:34.313Z,21.70
2022-11-24T01:37:02.513Z,22.60
2022-11-24T01:39:30.167Z,22.30
2022-11-24T01:42:01.699Z,22.40
2022-11-24T01:44:30.923Z,20.90
2022-11-24T01:47:53.033Z,20.90
2022-11-24T01:50:20.941Z,20.70
2022-11-24T01:52:53.983Z,21.40
2022-11-24T01:55:29.466Z,20.90
2022-11-24T01:58:13.106Z,21.60
2022-11-24T02:00:44.189Z,22.00
2022-11-24T02:03:14.201Z,20.60
2022-11-24T02:06:00.524Z,21.10
2022-11-24T02:08:51.982Z,20.80
2022-11-24T02:11:21.392Z,20.10
2022-11-24T02:13:50.384Z,20.00
2022-11-24T02:16:18.029Z,19.80
2022-11-24T02:18:45.945Z,19.30
2022-11-24T02:21:15.728Z,17.10
2022-11-24T02:24:13.687Z,18.30
2022-11-24T02:26:44.928Z,17.60
2022-11-24T02:29:13.723Z,19.80
2022-11-24T02:32:09.240Z,22.50
2022-11-24T02:34:36.943Z,23.20
2022-11-24T02:37:04.498Z,18.60
2022-11-24T02:39:32.087Z,19.80
2022-11-24T02:42:05.951Z,19.40
2022-11-24T02:44:48.163Z,20.20
2022-11-24T02:47:15.906Z,19.10
2022-11-24T02:49:43.532Z,21.50
2022-11-24T02:52:10.912Z,22.90
2022-11-24T02:54:38.624Z,23.00
2022-11-24T02:57:06.536Z,24.10
2022-11-24T02:59:34.470Z,24.40
2022-11-24T03:02:02.531Z,24.00
2022-11-24T03:04:30.372Z,22.60
2022-11-24T03:06:58.016Z,22.30
2022-11-24T03:09:25.872Z,24.50
2022-11-24T03:11:53.951Z,23.30
2022-11-24T03:14:21.844Z,23.70
2022-11-24T03:16:50.455Z,26.80
2022-11-24T03:19:18.045Z,22.10
2022-11-24T03:21:46.164Z,23.00
2022-11-24T03:24:14.073Z,25.40
2022-11-24T03:26:42.131Z,23.70
2022-11-24T03:29:09.633Z,33.80
2022-11-24T03:31:37.511Z,32.40
2022-11-24T03:34:05.232Z,24.60
2022-11-24T03:36:32.900Z,25.60
2022-11-24T03:39:00.678Z,26.80
2022-11-24T03:41:28.982Z,26.40
2022-11-24T03:44:00.288Z,22.70
2022-11-24T03:46:27.846Z,22.00
2022-11-24T03:48:55.620Z,25.70
2022-11-24T03:51:23.329Z,24.60
2022-11-24T03:53:51.021Z,23.10
2022-11-24T03:56:18.509Z,24.80
2022-11-24T03:58:46.447Z,25.00
2022-11-24T04:04:52.543Z,24.30
2022-11-24T04:07:21.943Z,24.50
2022-11-24T04:09:51.031Z,23.10
2022-11-24T04:12:38.646Z,22.60
2022-11-24T04:15:08.093Z,22.80
2022-11-24T04:17:37.203Z,20.50
2022-11-24T04:20:07.833Z,21.40
2022-11-24T04:22:37.132Z,20.30
2022-11-24T04:25:07.760Z,19.90
2022-11-24T04:27:37.862Z,21.10
2022-11-24T04:30:08.502Z,20.50
2022-11-24T04:32:38.450Z,20.00
2022-11-24T04:35:08.114Z,21.00
2022-11-24T04:37:38.974Z,19.10
2022-11-24T04:40:12.807Z,19.90
2022-11-24T04:42:42.193Z,20.90
2022-11-24T04:45:13.217Z,21.80
2022-11-24T04:47:43.261Z,23.20
2022-11-24T04:50:15.789Z,21.20
2022-11-24T04:52:45.388Z,22.80
2022-11-24T04:55:14.832Z,24.00
2022-11-24T04:57:44.907Z,27.60
2022-11-24T05:00:15.762Z,23.40
2022-11-24T05:02:44.864Z,24.80
2022-11-24T05:05:14.667Z,24.00
2022-11-24T05:07:45.340Z,25.80
2022-11-24T05:10:33.353Z,25.70
2022-11-24T05:13:06.852Z,26.50
2022-11-24T05:15:40.090Z,28.40
2022-11-24T05:18:25.914Z,28.20
2022-11-24T05:21:16.012Z,29.30
2022-11-24T05:23:45.163Z,28.00
2022-11-24T05:26:53.015Z,27.70
2022-11-24T05:29:23.526Z,31.90
2022-11-24T05:32:07.864Z,28.20
2022-11-24T05:34:39.734Z,29.50
2022-11-24T05:37:09.783Z,29.30
2022-11-24T05:39:40.028Z,29.00
2022-11-24T05:42:28.993Z,28.90
2022-11-24T05:45:24.480Z,28.50
2022-11-24T05:47:54.602Z,26.50
2022-11-24T05:50:25.193Z,27.70
2022-11-24T05:52:54.468Z,28.10
2022-11-24T05:55:46.337Z,27.50
2022-11-24T05:58:17.371Z,27.30
2022-11-24T06:00:49.701Z,26.40
2022-11-24T06:03:19.186Z,25.00
2022-11-24T06:05:50.291Z,26.20
2022-11-24T06:08:26.824Z,24.70
2022-11-24T06:11:34.943Z,25.20
2022-11-24T06:14:10.782Z,25.30
2022-11-24T06:16:46.997Z,23.50
2022-11-24T06:19:23.908Z,25.80
2022-11-24T06:21:59.640Z,25.10
2022-11-24T06:24:28.828Z,25.20
2022-11-24T06:27:10.383Z,22.80
2022-11-24T06:29:51.249Z,21.70
2022-11-24T06:32:20.373Z,20.20
2022-11-24T06:34:52.237Z,20.40
2022-11-24T06:37:22.216Z,18.80
2022-11-24T06:40:31.038Z,19.20
2022-11-24T06:43:00.574Z,19.40
2022-11-24T06:45:30.778Z,19.20
2022-11-24T06:48:00.109Z,18.30
2022-11-24T06:50:33.827Z,17.20
2022-11-24T06:53:03.903Z,17.70
2022-11-24T06:55:33.548Z,17.40
2022-11-24T06:58:43.067Z,16.60
2022-11-24T07:01:23.098Z,19.90
2022-11-24T07:03:54.219Z,21.20
2022-11-24T07:06:27.563Z,20.30
2022-11-24T07:08:57.630Z,15.60
2022-11-24T07:11:27.795Z,17.20
2022-11-24T07:14:16.007Z,17.40
2022-11-24T07:16:47.032Z,15.40
2022-11-24T07:19:25.211Z,14.80
2022-11-24T07:21:55.891Z,16.30
2022-11-24T07:24:26.871Z,17.00
2022-11-24T07:41:45.890Z,18.20
2022-11-24T07:44:19.827Z,19.80
2022-11-24T07:47:07.915Z,20.10
2022-11-24T07:49:38.719Z,19.70
2022-11-24T07:52:11.166Z,19.90
2022-11-24T08:12:46.572Z,15.10
2022-11-24T08:15:22.628Z,16.70
2022-11-24T08:18:32.909Z,18.20
2022-11-24T08:21:03.641Z,19.90
2022-11-24T08:27:08.723Z,20.10
2022-11-24T08:29:46.775Z,20.20
2022-11-24T08:32:22.059Z,18.60
2022-11-24T08:35:13.486Z,18.90
2022-11-24T08:50:37.932Z,22.20
2022-11-24T08:53:08.295Z,19.50
2022-11-24T08:59:14.960Z,17.60
2022-11-24T09:05:43.278Z,19.00
2022-11-24T09:15:14.151Z,13.60
2022-11-24T09:24:37.078Z,14.60
2022-11-24T09:27:17.758Z,12.50
2022-11-24T09:30:50.582Z,14.40
2022-11-24T09:33:20.137Z,12.80
2022-11-24T09:35:54.329Z,13.10
2022-11-24T09:38:54.251Z,15.40
2022-11-24T09:46:05.572Z,11.30
2022-11-24T09:55:45.464Z,10.70
2022-11-24T09:59:00.842Z,11.70
2022-11-24T10:04:49.978Z,15.80
2022-11-24T10:07:35.098Z,13.20
2022-11-24T10:10:21.168Z,14.70
2022-11-24T10:13:23.411Z,14.30
2022-11-24T10:19:22.815Z,13.50
2022-11-24T10:22:21.857Z,14.00
2022-11-24T10:25:14.332Z,16.30
2022-11-24T10:29:06.674Z,16.10
2022-11-24T10:31:43.932Z,12.90
2022-11-24T10:47:47.417Z,11.40
2022-11-24T10:54:17.413Z,11.10
2022-11-24T10:56:59.025Z,12.00
2022-11-24T10:59:45.786Z,12.40
2022-11-24T11:02:40.331Z,13.30
2022-11-24T11:05:48.269Z,13.00
2022-11-24T11:12:09.971Z,17.50
2022-11-24T11:15:38.829Z,15.20
2022-11-24T11:18:20.660Z,15.50
2022-11-24T11:23:59.518Z,14.40
2022-11-24T11:26:43.959Z,12.50
2022-11-24T11:38:43.876Z,17.30
2022-11-24T11:42:25.705Z,16.90
2022-11-24T11:45:27.206Z,17.50
2022-11-24T11:48:21.744Z,16.30
2022-11-24T11:51:52.404Z,14.20
2022-11-24T11:54:44.774Z,15.20
2022-11-24T12:05:12.849Z,19.40
2022-11-24T12:09:18.613Z,21.90
2022-11-24T12:15:39.854Z,18.60
2022-11-24T12:39:36.813Z,17.50
2022-11-24T12:49:37.879Z,16.50
2022-11-24T12:55:42.101Z,17.50
2022-11-24T12:58:57.184Z,18.80
2022-11-24T13:05:31.617Z,16.60
2022-11-24T13:08:59.619Z,18.80
2022-11-24T13:11:52.660Z,19.10
2022-11-24T13:18:49.173Z,18.30
2022-11-24T13:21:41.928Z,16.40
2022-11-24T13:24:24.085Z,16.50
2022-11-24T13:30:45.575Z,16.50
2022-11-24T13:33:17.121Z,19.10
2022-11-24T14:01:52.722Z,17.70
2022-11-24T14:04:40.342Z,17.60
2022-11-24T14:07:57.019Z,17.50
2022-11-24T14:13:49.035Z,19.20
2022-11-24T14:16:24.617Z,18.30
2022-11-24T14:22:33.471Z,19.10
2022-11-24T14:28:33.043Z,18.90
2022-11-24T14:31:35.359Z,17.30
2022-11-24T14:40:57.685Z,16.60
2022-11-24T14:43:52.197Z,15.70
2022-11-24T14:46:22.392Z,18.00
2022-11-24T14:48:54.806Z,18.90
2022-11-24T14:51:27.575Z,17.30
2022-11-24T14:54:19.510Z,17.90
2022-11-24T14:57:24.715Z,18.40
2022-11-24T15:03:36.725Z,19.40
2022-11-24T15:30:39.493Z,19.20
2022-11-24T15:33:17.060Z,19.40
2022-11-24T15:36:15.713Z,19.10
2022-11-24T15:39:04.180Z,18.40
2022-11-24T16:15:57.234Z,22.60
2022-11-24T16:18:26.478Z,23.60
2022-11-24T16:24:21.814Z,23.60
2022-11-24T16:30:16.407Z,20.50
2022-11-24T16:33:55.057Z,21.30
2022-11-24T16:39:49.953Z,19.40
2022-11-24T16:42:23.027Z,20.90
2022-11-24T16:44:52.553Z,21.80
2022-11-24T16:50:58.109Z,18.50
2022-11-24T16:53:31.855Z,21.20
2022-11-24T16:57:01.149Z,19.90
2022-11-24T16:59:37.539Z,21.80
2022-11-24T17:02:36.745Z,19.60
2022-11-24T17:05:09.416Z,19.30
2022-11-24T17:11:28.586Z,19.40
2022-11-24T17:17:19.973Z,17.30
2022-11-24T17:19:49.074Z,19.00
2022-11-24T17:23:15.154Z,19.50
2022-11-24T17:25:45.234Z,21.20
2022-11-24T17:35:18.577Z,19.20
2022-11-24T17:37:49.742Z,19.20
2022-11-24T18:00:57.081Z,15.00
2022-11-24T18:03:31.466Z,14.00
2022-11-24T18:09:27.282Z,15.00
2022-11-24T18:15:55.848Z,14.90
2022-11-24T18:18:40.288Z,16.00
2022-11-24T18:22:14.569Z,15.80
2022-11-24T18:24:54.485Z,15.30
2022-11-24T18:34:48.498Z,17.30
2022-11-24T18:37:22.463Z,17.60
2022-11-24T18:39:53.460Z,17.50
2022-11-24T18:48:31.185Z,18.90
2022-11-24T18:51:34.173Z,18.40
2022-11-24T18:54:06.343Z,17.90
2022-11-24T18:56:35.082Z,17.70
2022-11-24T18:59:03.180Z,18.50
2022-11-24T19:01:39.720Z,20.20
2022-11-24T19:04:13.769Z,18.00
2022-11-24T19:06:52.549Z,17.80
2022-11-24T19:09:29.604Z,18.10
2022-11-24T19:12:28.573Z,19.50
2022-11-24T19:14:57.751Z,19.40
2022-11-24T19:17:30.005Z,18.30
2022-11-24T19:20:10.573Z,18.20
2022-11-24T19:22:43.303Z,18.10
2022-11-24T19:25:57.631Z,19.80
2022-11-24T19:28:28.687Z,19.80
2022-11-24T19:31:04.409Z,18.50
2022-11-24T19:33:36.527Z,17.70
2022-11-24T19:36:09.135Z,16.50
2022-11-24T19:38:40.739Z,11.60
2022-11-24T19:41:15.140Z,13.80
2022-11-24T19:43:43.398Z,13.70
2022-11-24T19:46:14.869Z,15.10
2022-11-24T19:52:04.862Z,15.90
2022-11-24T19:54:34.543Z,15.20
2022-11-24T19:57:04.704Z,14.60
2022-11-24T19:59:32.484Z,14.40
2022-11-24T20:02:02.337Z,13.80
2022-11-24T20:04:32.361Z,15.40
2022-11-24T20:07:00.442Z,17.20
2022-11-24T20:09:32.840Z,16.00
2022-11-24T20:12:04.263Z,17.50
2022-11-24T20:14:33.667Z,15.40
2022-11-24T20:17:06.379Z,15.90
2022-11-24T20:22:57.455Z,17.10
2022-11-24T20:25:25.431Z,14.00
2022-11-24T20:27:55.979Z,14.20
2022-11-24T20:30:25.841Z,14.10
2022-11-24T20:32:56.302Z,15.20
2022-11-24T20:35:24.424Z,13.00
2022-11-24T20:37:53.466Z,13.10
2022-11-24T20:40:21.298Z,13.80
2022-11-24T20:42:49.791Z,12.90
2022-11-24T20:45:21.973Z,13.80
2022-11-24T20:50:52.336Z,14.00
2022-11-24T20:53:22.284Z,12.40
2022-11-24T20:55:52.294Z,13.00
2022-11-24T20:58:21.382Z,12.30
2022-11-24T21:01:01.547Z,13.40
2022-11-24T21:03:31.135Z,12.50
2022-11-24T21:06:00.523Z,12.70
2022-11-24T21:08:34.077Z,12.70
2022-11-24T21:11:06.130Z,13.10
2022-11-24T21:13:38.131Z,12.50
2022-11-24T21:16:19.068Z,14.20
2022-11-24T21:18:53.232Z,12.30
2022-11-24T21:21:24.404Z,14.30
2022-11-24T21:23:53.314Z,12.80
2022-11-24T21:26:22.457Z,12.30
2022-11-24T21:28:51.380Z,13.90
2022-11-24T21:31:21.961Z,11.70
2022-11-24T21:33:54.932Z,11.00
2022-11-24T21:36:25.970Z,12.60
2022-11-24T21:38:57.679Z,13.50
2022-11-24T21:41:29.127Z,12.70
2022-11-24T21:43:58.344Z,12.90
2022-11-24T21:46:29.416Z,12.90
2022-11-24T21:48:58.279Z,14.10
2022-11-24T21:51:28.750Z,14.80
2022-11-24T21:53:58.883Z,16.20
2022-11-24T21:56:28.958Z,15.10
2022-11-24T21:58:58.881Z,17.90
2022-11-24T22:01:29.051Z,15.20
2022-11-24T22:03:58.229Z,16.30
2022-11-24T22:06:27.634Z,16.20
2022-11-24T22:08:56.764Z,16.10
2022-11-24T22:11:29.140Z,17.10
2022-11-24T22:13:59.394Z,15.50
2022-11-24T22:16:29.254Z,15.30
2022-11-24T22:19:01.069Z,16.30
2022-11-24T22:21:37.722Z,18.10
2022-11-24T22:24:07.195Z,18.80
2022-11-24T22:26:36.278Z,19.20
2022-11-24T22:29:12.678Z,18.70
2022-11-24T22:31:42.231Z,18.30
2022-11-24T22:34:11.445Z,18.00
2022-11-24T22:36:43.493Z,17.60
2022-11-24T22:39:13.405Z,17.80
2022-11-24T22:41:42.258Z,19.80
2022-11-24T22:44:11.222Z,17.50
2022-11-24T22:46:39.986Z,18.20
2022-11-24T22:49:19.552Z,20.30
2022-11-24T22:51:57.404Z,20.10
2022-11-24T22:54:26.517Z,19.60
2022-11-24T22:56:56.331Z,18.90
2022-11-24T22:59:25.330Z,20.50
2022-11-24T23:06:53.560Z,19.60
2022-11-24T23:09:21.001Z,19.10
2022-11-24T23:11:49.729Z,17.60
2022-11-24T23:14:17.278Z,19.20
2022-11-24T23:16:46.662Z,20.50
2022-11-24T23:19:14.632Z,19.00
2022-11-24T23:21:42.124Z,21.70
2022-11-24T23:24:10.315Z,19.00
2022-11-24T23:26:41.429Z,19.60
2022-11-24T23:29:10.992Z,18.20
2022-11-24T23:31:41.253Z,19.30
2022-11-24T23:34:09.630Z,21.00
2022-11-24T23:36:38.107Z,20.70
2022-11-24T23:39:13.660Z,19.30
2022-11-24T23:41:45.501Z,19.10
2022-11-24T23:44:13.008Z,20.40
2022-11-24T23:46:40.813Z,20.90
2022-11-24T23:49:08.612Z,20.60
2022-11-24T23:51:36.333Z,21.10
2022-11-24T23:54:08.294Z,20.90
2022-11-24T23:56:35.740Z,20.70
2022-11-24T23:59:04.466Z,21.50
